Time;durP1;ratioP1;P1;durP2;ratioP2;P2;SDS_P1;SDS_P2;PMS_P1;PMS_P2;Temp;Humidity;BMP_temperature;BMP_pressure;BME280_temperature;BME280_humidity;BME280_pressure;Samples;Min_cycle;Max_cycle;Signal;HPM_P1;HPM_P2
2024/01/26 00:00:44;;;;;;;3.85;1.83;;;;;;;23.70;36.66;101364.78;2098385;28;21226;-60
2024/01/26 00:01:46;;;;;;;4.80;2.10;;;;;;;23.67;36.69;101370.94;2097835;28;20222;-60
2024/01/26 00:02:47;;;;;;;3.40;1.85;;;;;;;23.62;36.59;101376.69;2097889;28;20079;-60
2024/01/26 00:03:48;;;;;;;4.75;1.95;;;;;;;23.58;36.45;101364.78;2097852;28;20033;-60
2024/01/26 00:04:50;;;;;;;3.70;1.85;;;;;;;23.54;36.34;101366.63;2089744;28;20963;-61
2024/01/26 00:05:56;;;;;;;4.75;2.00;;;;;;;23.48;36.34;101371.56;2098476;28;20079;-60
2024/01/26 00:06:58;;;;;;;4.78;2.22;;;;;;;23.44;36.28;101372.63;2114181;28;20040;-60
2024/01/26 00:08:00;;;;;;;5.00;1.70;;;;;;;23.40;36.31;101378.00;2106285;28;20814;-60
2024/01/26 00:09:11;;;;;;;3.00;1.55;;;;;;;23.35;36.19;101373.53;2106504;28;20071;-60
2024/01/26 00:10:13;;;;;;;3.53;1.55;;;;;;;23.31;36.19;101378.13;2106288;28;20025;-60
2024/01/26 00:11:19;;;;;;;2.88;1.95;;;;;;;23.27;36.25;101377.22;2098128;28;20033;-60
2024/01/26 00:12:20;;;;;;;3.05;1.40;;;;;;;23.23;36.11;101376.28;2098673;28;20114;-60
2024/01/26 00:13:22;;;;;;;3.65;1.45;;;;;;;23.20;36.14;101371.50;2089686;28;20045;-60
2024/01/26 00:14:24;;;;;;;2.28;1.40;;;;;;;23.17;36.14;101371.38;2089688;28;20132;-60
2024/01/26 00:15:26;;;;;;;2.58;1.50;;;;;;;23.12;36.13;101377.91;2097579;28;20041;-60
2024/01/26 00:16:30;;;;;;;3.92;1.50;;;;;;;23.08;36.01;101372.31;2105999;28;20121;-60
2024/01/26 00:17:32;;;;;;;2.67;1.42;;;;;;;23.04;36.03;101367.84;2106049;28;20040;-60
2024/01/26 00:18:34;;;;;;;2.25;1.30;;;;;;;23.02;36.08;101370.16;2105557;28;20037;-60
2024/01/26 00:19:36;;;;;;;2.45;1.35;;;;;;;22.98;36.01;101374.72;2106220;28;20751;-60
2024/01/26 00:20:38;;;;;;;2.72;1.60;;;;;;;22.96;36.01;101368.78;2097955;28;20044;-60
2024/01/26 00:21:39;;;;;;;3.95;1.40;;;;;;;22.91;35.92;101370.56;2089608;28;20037;-60
2024/01/26 00:22:41;;;;;;;1.98;1.33;;;;;;;22.89;35.93;101366.59;2089772;28;20084;-60
2024/01/26 00:23:43;;;;;;;2.33;1.35;;;;;;;22.86;36.01;101373.53;2097904;28;21270;-60
2024/01/26 00:24:44;;;;;;;2.10;1.10;;;;;;;22.84;35.96;101378.56;2088998;28;20187;-60
2024/01/26 00:25:47;;;;;;;3.40;1.60;;;;;;;22.79;35.94;101372.50;2089804;28;20845;-60
2024/01/26 00:26:48;;;;;;;3.28;1.17;;;;;;;22.77;35.91;101370.13;2114699;28;20141;-60
2024/01/26 00:27:50;;;;;;;2.55;1.10;;;;;;;22.74;35.91;101370.78;2098120;28;20064;-61
2024/01/26 00:28:51;;;;;;;3.22;1.23;;;;;;;22.72;35.82;101378.56;2089409;28;20094;-61
2024/01/26 00:29:53;;;;;;;1.70;1.30;;;;;;;22.70;35.91;101374.53;2089596;28;20021;-61
2024/01/26 00:30:55;;;;;;;4.20;1.20;;;;;;;22.66;35.82;101377.97;2081434;28;20030;-61
2024/01/26 00:31:57;;;;;;;2.53;1.20;;;;;;;22.62;35.97;101374.31;2097566;28;20036;-61
2024/01/26 00:32:59;;;;;;;4.97;1.23;;;;;;;22.62;35.90;101379.00;2081182;28;20197;-61
2024/01/26 00:34:01;;;;;;;2.72;1.35;;;;;;;22.59;35.85;101374.19;2089943;28;20144;-61
2024/01/26 00:35:04;;;;;;;3.05;1.10;;;;;;;22.56;35.86;101374.88;2097668;28;20060;-62
2024/01/26 00:36:06;;;;;;;2.50;1.20;;;;;;;22.55;35.87;101373.28;2106277;28;20033;-61
2024/01/26 00:37:08;;;;;;;4.75;1.10;;;;;;;22.54;35.97;101368.91;2106666;28;20154;-61
2024/01/26 00:38:10;;;;;;;3.20;1.20;;;;;;;22.51;36.09;101366.88;2106250;28;20033;-61
2024/01/26 00:39:12;;;;;;;2.15;1.00;;;;;;;22.50;36.03;101371.53;2097663;28;20052;-61
2024/01/26 00:40:14;;;;;;;1.75;1.08;;;;;;;22.49;36.04;101371.91;2090240;28;20128;-61
2024/01/26 00:41:16;;;;;;;3.67;1.10;;;;;;;22.47;35.97;101369.50;2074558;28;20038;-61
2024/01/26 00:42:18;;;;;;;2.17;1.10;;;;;;;22.46;35.91;101373.38;2083247;28;20037;-61
2024/01/26 00:43:19;;;;;;;1.95;1.08;;;;;;;22.44;35.84;101372.91;2099458;28;20037;-62
2024/01/26 00:44:23;;;;;;;1.73;1.10;;;;;;;22.43;35.88;101377.59;2099564;28;20036;-61
2024/01/26 00:45:25;;;;;;;1.88;0.98;;;;;;;22.43;35.67;101377.59;2107187;28;20029;-62
2024/01/26 00:46:27;;;;;;;2.13;1.00;;;;;;;22.41;35.72;101371.66;2099340;28;20071;-61
2024/01/26 00:47:33;;;;;;;1.52;1.00;;;;;;;22.38;35.62;101368.78;2099660;28;20049;-61
2024/01/26 00:48:35;;;;;;;1.48;0.77;;;;;;;22.37;35.73;101370.72;2098922;28;20037;-61
2024/01/26 00:49:37;;;;;;;2.33;0.90;;;;;;;22.35;35.80;101370.28;2090986;28;20029;-61
2024/01/26 00:50:40;;;;;;;1.58;0.90;;;;;;;22.33;35.75;101378.03;2099413;28;20763;-61
2024/01/26 00:51:41;;;;;;;1.70;0.80;;;;;;;22.33;35.71;101380.75;2090704;28;20045;-61
2024/01/26 00:52:45;;;;;;;1.92;0.98;;;;;;;22.31;35.76;101383.03;2099653;28;20083;-61
2024/01/26 00:53:47;;;;;;;2.08;1.10;;;;;;;22.30;35.81;101384.19;2107772;28;20110;-61
2024/01/26 00:54:48;;;;;;;2.53;1.05;;;;;;;22.29;35.66;101385.34;2107716;28;20043;-61
2024/01/26 00:55:50;;;;;;;1.60;1.10;;;;;;;22.27;35.74;101390.34;2098939;28;20040;-60
2024/01/26 00:56:52;;;;;;;3.35;0.80;;;;;;;22.26;35.75;101388.75;2090929;28;20036;-61
2024/01/26 00:57:53;;;;;;;0.88;0.73;;;;;;;22.24;35.63;101396.47;2091075;28;20037;-61
2024/01/26 00:58:54;;;;;;;1.20;0.80;;;;;;;22.22;35.72;101387.78;2099342;28;20115;-61
2024/01/26 00:59:59;;;;;;;1.67;0.88;;;;;;;22.21;35.75;101388.94;2098885;28;20033;-61
2024/01/26 01:01:02;;;;;;;1.65;0.82;;;;;;;22.20;35.59;101392.81;2075339;28;20045;-61
2024/01/26 01:02:04;;;;;;;1.75;0.90;;;;;;;22.18;35.65;101389.63;2082607;28;20864;-61
2024/01/26 01:03:05;;;;;;;1.63;0.82;;;;;;;22.16;35.77;101391.88;2091054;28;20041;-61
2024/01/26 01:04:07;;;;;;;2.20;0.90;;;;;;;22.15;35.89;101398.47;2107484;28;20040;-61
2024/01/26 01:05:12;;;;;;;1.25;0.80;;;;;;;22.14;35.63;101397.69;2115168;28;20050;-62
2024/01/26 01:06:14;;;;;;;1.67;0.82;;;;;;;22.13;35.79;101401.56;2098836;28;20067;-62
2024/01/26 01:07:15;;;;;;;1.05;0.70;;;;;;;22.12;35.69;101388.19;2099529;28;20848;-61
2024/01/26 01:08:16;;;;;;;1.67;0.73;;;;;;;22.11;35.72;101397.56;2115910;28;20953;-61
2024/01/26 01:09:19;;;;;;;2.35;0.80;;;;;;;22.10;35.56;101401.41;2106877;28;20136;-61
2024/01/26 01:10:21;;;;;;;0.73;0.60;;;;;;;22.07;35.52;101407.56;2091236;28;20101;-61
2024/01/26 01:11:22;;;;;;;2.17;0.70;;;;;;;22.07;35.52;101407.56;2082235;28;20120;-61
2024/01/26 01:12:25;;;;;;;2.00;0.50;;;;;;;22.06;35.63;101405.97;2083268;28;20038;-61
2024/01/26 01:13:28;;;;;;;1.83;0.80;;;;;;;22.05;35.79;101405.16;2090467;28;20910;-61
2024/01/26 01:14:30;;;;;;;0.93;0.60;;;;;;;22.05;35.65;101404.38;2075048;28;20040;-60
2024/01/26 01:15:32;;;;;;;1.30;0.65;;;;;;;22.02;35.53;101405.03;2082081;28;20036;-61
2024/01/26 01:16:34;;;;;;;1.05;0.75;;;;;;;22.02;35.66;101402.31;2090619;28;20041;-61
2024/01/26 01:17:36;;;;;;;1.75;1.02;;;;;;;22.01;35.58;101409.72;2090603;28;20772;-61
2024/01/26 01:18:37;;;;;;;1.48;0.63;;;;;;;22.01;35.53;101414.41;2098786;28;20041;-62
2024/01/26 01:19:39;;;;;;;0.90;0.60;;;;;;;21.99;35.43;101418.25;2090705;28;20518;-61
2024/01/26 01:20:43;;;;;;;1.33;0.70;;;;;;;21.97;35.61;101406.84;2082303;28;20042;-61
2024/01/26 01:21:45;;;;;;;0.88;0.50;;;;;;;21.96;35.54;101407.97;2075055;28;20038;-61
2024/01/26 01:22:47;;;;;;;1.13;0.70;;;;;;;21.94;35.51;101404.78;2082513;28;20063;-61
2024/01/26 01:23:50;;;;;;;1.17;0.60;;;;;;;21.95;35.69;101405.59;2090323;28;21260;-61
2024/01/26 01:24:52;;;;;;;1.17;0.60;;;;;;;21.94;35.61;101414.91;2091017;28;20037;-61
2024/01/26 01:25:54;;;;;;;1.35;0.70;;;;;;;21.93;35.79;101418.81;2098504;28;20033;-61
2024/01/26 01:26:56;;;;;;;0.70;0.60;;;;;;;21.92;35.64;101423.47;2090465;28;20040;-60
2024/01/26 01:27:57;;;;;;;1.35;0.60;;;;;;;21.90;35.74;101420.25;2090671;28;20150;-62
2024/01/26 01:28:59;;;;;;;1.85;0.63;;;;;;;21.91;35.62;101423.81;2090383;28;20140;-60
2024/01/26 01:30:01;;;;;;;1.63;0.70;;;;;;;21.90;35.56;101431.22;2082584;28;20037;-61
2024/01/26 01:31:04;;;;;;;1.23;0.60;;;;;;;21.90;35.76;101435.91;2090513;28;20033;-61
2024/01/26 01:32:07;;;;;;;0.73;0.45;;;;;;;21.88;35.78;101438.16;2101746;28;20087;-61
2024/01/26 01:33:09;;;;;;;1.52;0.70;;;;;;;21.87;35.69;101437.34;2098201;28;20045;-61
2024/01/26 01:34:11;;;;;;;1.88;0.75;;;;;;;21.87;35.65;101437.34;2074168;28;20144;-61
2024/01/26 01:35:13;;;;;;;1.25;0.55;;;;;;;21.86;35.67;101443.97;2090952;28;20291;-61
2024/01/26 01:36:15;;;;;;;4.60;0.60;;;;;;;21.82;35.87;101434.84;2106961;28;20036;-61
2024/01/26 01:37:17;;;;;;;1.13;0.50;;;;;;;21.85;35.66;101434.16;2098734;28;20041;-61
2024/01/26 01:38:18;;;;;;;1.90;1.00;;;;;;;21.85;35.84;101441.59;2090727;28;20083;-61
2024/01/26 01:39:20;;;;;;;1.40;0.70;;;;;;;21.85;35.71;101439.66;2090432;28;20152;-62
2024/01/26 01:40:23;;;;;;;3.08;0.60;;;;;;;21.84;35.71;101434.50;2098943;28;20025;-62
2024/01/26 01:41:24;;;;;;;0.65;0.65;;;;;;;21.83;35.72;101436.44;2098887;28;20087;-61
2024/01/26 01:42:26;;;;;;;0.40;0.30;;;;;;;21.82;35.80;101434.84;2090174;28;20044;-61
2024/01/26 01:43:28;;;;;;;0.80;0.50;;;;;;;21.82;35.80;101439.53;2090647;28;20041;-62
2024/01/26 01:44:30;;;;;;;2.33;0.63;;;;;;;21.80;35.80;101442.56;2098604;28;21020;-61
2024/01/26 01:45:32;;;;;;;1.90;0.40;;;;;;;21.80;35.86;101437.09;2098367;28;20089;-62
2024/01/26 01:46:34;;;;;;;0.65;0.40;;;;;;;21.80;35.85;101441.78;2098762;28;20029;-63
2024/01/26 01:47:36;;;;;;;1.48;0.60;;;;;;;21.78;35.82;101439.34;2107143;28;20029;-63
2024/01/26 01:48:38;;;;;;;1.08;0.50;;;;;;;21.79;35.81;101437.44;2115250;28;20170;-62
2024/01/26 01:49:40;;;;;;;1.73;0.40;;;;;;;21.79;35.81;101438.25;2115527;28;20020;-63
2024/01/26 01:50:42;;;;;;;1.67;0.43;;;;;;;21.78;35.55;101439.34;2089975;28;20076;-63
2024/01/26 01:51:47;;;;;;;0.70;0.50;;;;;;;21.77;35.68;101443.22;2074016;28;20042;-63
2024/01/26 01:52:51;;;;;;;1.38;0.60;;;;;;;21.75;35.83;101440.84;2090777;28;20033;-63
2024/01/26 01:53:53;;;;;;;2.00;0.60;;;;;;;21.74;35.73;101443.91;2090750;28;20783;-63
2024/01/26 01:54:59;;;;;;;0.93;0.52;;;;;;;21.72;35.70;101438.78;2090715;28;20972;-63
2024/01/26 01:56:03;;;;;;;0.63;0.40;;;;;;;21.73;35.76;101431.34;2099696;28;20037;-64
2024/01/26 01:57:05;;;;;;;3.50;0.45;;;;;;;21.72;35.59;101437.94;2107127;28;20122;-61
2024/01/26 01:58:08;;;;;;;0.73;0.40;;;;;;;21.71;35.77;101428.13;2107126;28;20040;-60
2024/01/26 01:59:10;;;;;;;1.33;0.50;;;;;;;21.71;35.95;101439.09;2099147;28;20844;-63
2024/01/26 02:00:16;;;;;;;0.90;0.50;;;;;;;21.70;35.71;101432.81;2082274;28;20841;-64
2024/01/26 02:01:21;;;;;;;0.85;0.47;;;;;;;21.70;35.66;101432.03;2084357;28;20034;-64
2024/01/26 02:02:24;;;;;;;1.98;0.40;;;;;;;21.70;35.63;101427.34;2099182;28;20180;-64
2024/01/26 02:03:28;;;;;;;0.55;0.40;;;;;;;21.68;35.63;101434.28;2098676;28;20037;-64
2024/01/26 02:04:30;;;;;;;1.00;0.40;;;;;;;21.69;35.68;101435.88;2106718;28;20117;-63
2024/01/26 02:05:34;;;;;;;0.93;0.55;;;;;;;21.69;35.76;101441.34;2106743;28;20041;-61
2024/01/26 02:06:39;;;;;;;0.82;0.40;;;;;;;21.68;35.85;101439.75;2107297;28;20155;-60
2024/01/26 02:07:41;;;;;;;0.40;0.40;;;;;;;21.67;35.99;101436.22;2107542;28;20039;-61
2024/01/26 02:08:43;;;;;;;0.47;0.40;;;;;;;21.67;35.85;101440.91;2107703;28;20036;-61
2024/01/26 02:09:45;;;;;;;0.47;0.40;;;;;;;21.66;35.83;101433.81;2115538;28;20040;-60
2024/01/26 02:10:47;;;;;;;0.77;0.40;;;;;;;21.65;35.72;101433.00;2115358;28;20066;-61
2024/01/26 02:11:48;;;;;;;0.43;0.30;;;;;;;21.64;35.83;101433.34;2098335;28;20149;-60
2024/01/26 02:12:49;;;;;;;0.95;0.50;;;;;;;21.63;35.80;101437.22;2082353;28;20042;-61
2024/01/26 02:13:51;;;;;;;0.95;0.40;;;;;;;21.64;36.13;101433.34;2098603;28;20149;-60
2024/01/26 02:14:53;;;;;;;0.55;0.40;;;;;;;21.63;35.90;101426.28;2098387;28;20108;-60
2024/01/26 02:15:55;;;;;;;2.67;0.50;;;;;;;21.63;35.76;101431.75;2081688;28;20034;-60
2024/01/26 02:17:05;;;;;;;1.25;0.50;;;;;;;21.61;35.81;101426.59;2093383;28;20036;-61
2024/01/26 02:18:08;;;;;;;1.17;0.43;;;;;;;21.61;35.84;101423.06;2107077;28;20065;-62
2024/01/26 02:19:14;;;;;;;2.80;0.70;;;;;;;21.60;35.81;101430.47;2107027;28;20130;-63
2024/01/26 02:20:17;;;;;;;1.13;0.50;;;;;;;21.59;35.76;101433.53;2106838;28;20040;-63
2024/01/26 02:21:19;;;;;;;1.30;0.40;;;;;;;21.58;35.79;101431.94;2107393;28;20029;-63
2024/01/26 02:22:20;;;;;;;0.60;0.40;;;;;;;21.57;35.77;101428.41;2106746;28;20036;-62
2024/01/26 02:23:25;;;;;;;0.60;0.52;;;;;;;21.59;35.77;101428.06;2106972;28;20063;-62
2024/01/26 02:24:28;;;;;;;0.63;0.40;;;;;;;21.56;35.70;101429.53;2106771;28;20106;-62
2024/01/26 02:25:33;;;;;;;0.82;0.50;;;;;;;21.57;35.69;101430.34;2106991;28;20142;-63
2024/01/26 02:26:34;;;;;;;0.57;0.40;;;;;;;21.56;35.58;101428.72;2115269;28;20947;-63
2024/01/26 02:27:35;;;;;;;0.90;0.38;;;;;;;21.56;35.78;101428.72;2106486;28;20037;-62
2024/01/26 02:28:37;;;;;;;1.52;0.50;;;;;;;21.55;35.91;101432.59;2098252;28;20032;-63
2024/01/26 02:29:39;;;;;;;0.50;0.47;;;;;;;21.56;35.66;101428.72;2098566;28;20102;-62
2024/01/26 02:30:42;;;;;;;1.05;0.47;;;;;;;21.55;35.71;101429.88;2090085;28;20056;-61
2024/01/26 02:31:45;;;;;;;0.65;0.35;;;;;;;21.54;35.76;101428.28;2082688;28;20034;-61
2024/01/26 02:32:47;;;;;;;0.30;0.25;;;;;;;21.55;35.93;101429.88;2073958;28;20069;-61
2024/01/26 02:33:48;;;;;;;0.50;0.50;;;;;;;21.53;35.73;101427.44;2073987;28;20030;-61
2024/01/26 02:34:50;;;;;;;0.63;0.40;;;;;;;21.54;35.87;101425.53;2090353;28;20104;-61
2024/01/26 02:35:52;;;;;;;0.82;0.47;;;;;;;21.52;35.97;101423.13;2090290;28;20190;-61
2024/01/26 02:36:55;;;;;;;0.95;0.50;;;;;;;;;;2090956;28;20139;-61
2024/01/26 02:37:57;;;;;;;1.10;0.70;;;;;;;21.52;35.73;101414.91;2098763;28;20040;-61
2024/01/26 02:39:00;;;;;;;0.50;0.40;;;;;;;21.50;35.83;101418.00;2098801;28;20037;-61
2024/01/26 02:40:08;;;;;;;1.48;0.60;;;;;;;21.51;35.87;101419.59;2098829;28;20039;-62
2024/01/26 02:41:10;;;;;;;0.60;0.40;;;;;;;21.52;35.92;101425.84;2098886;28;20038;-63
2024/01/26 02:42:11;;;;;;;0.47;0.30;;;;;;;21.50;35.94;101428.94;2107189;28;20824;-62
2024/01/26 02:43:13;;;;;;;0.60;0.35;;;;;;;21.50;35.85;101428.94;2098550;28;20123;-62
2024/01/26 02:44:15;;;;;;;0.88;0.40;;;;;;;21.49;35.85;101421.84;2090679;28;20026;-59
2024/01/26 02:45:17;;;;;;;0.30;0.30;;;;;;;21.48;35.87;101428.44;2096505;28;20037;-60
2024/01/26 02:46:19;;;;;;;0.40;0.38;;;;;;;21.49;35.95;101421.03;2082218;28;20038;-60
2024/01/26 02:47:21;;;;;;;0.60;0.47;;;;;;;21.48;35.73;101425.72;2090440;28;20156;-60
2024/01/26 02:48:23;;;;;;;0.47;0.30;;;;;;;21.48;35.81;101425.72;2098558;28;20061;-60
2024/01/26 02:49:24;;;;;;;0.47;0.20;;;;;;;21.47;36.03;101424.13;2098364;28;20871;-60
2024/01/26 02:50:26;;;;;;;0.30;0.30;;;;;;;21.47;35.84;101426.84;2098543;28;20059;-60
2024/01/26 02:51:28;;;;;;;0.60;0.40;;;;;;;21.46;35.95;101427.97;2089746;28;20037;-60
2024/01/26 02:52:29;;;;;;;0.40;0.30;;;;;;;21.46;35.74;101425.22;2090211;28;20068;-61
2024/01/26 02:53:31;;;;;;;0.50;0.40;;;;;;;21.46;35.74;101436.19;2081374;28;20033;-60
2024/01/26 02:54:36;;;;;;;0.80;0.30;;;;;;;21.45;35.83;101431.84;2090053;28;20760;-61
2024/01/26 02:55:37;;;;;;;6.70;0.50;;;;;;;21.46;35.76;101432.66;2090414;28;20056;-61
2024/01/26 02:56:39;;;;;;;1.85;0.40;;;;;;;21.45;35.90;101434.59;2090462;28;20029;-61
2024/01/26 02:57:41;;;;;;;0.38;0.30;;;;;;;21.45;35.77;101437.31;2098421;28;20147;-61
2024/01/26 02:58:45;;;;;;;5.15;0.50;;;;;;;21.45;35.86;101437.31;2106657;28;20033;-61
2024/01/26 02:59:46;;;;;;;0.75;0.40;;;;;;;21.45;35.94;101433.78;2098821;28;21400;-61
2024/01/26 03:00:51;;;;;;;0.80;0.40;;;;;;;21.44;35.90;101435.72;2098393;28;20110;-61
2024/01/26 03:01:52;;;;;;;0.60;0.30;;;;;;;21.45;35.83;101431.84;2081973;28;20160;-61
2024/01/26 03:02:54;;;;;;;0.77;0.30;;;;;;;21.44;35.76;101429.47;2090309;28;20219;-61
2024/01/26 03:03:56;;;;;;;1.02;0.40;;;;;;;21.44;35.89;101433.00;2098354;28;20035;-61
2024/01/26 03:05:00;;;;;;;0.47;0.30;;;;;;;21.45;35.96;101436.53;2098635;28;21231;-61
2024/01/26 03:06:01;;;;;;;0.90;0.30;;;;;;;21.46;35.99;101443.59;2098534;28;20875;-61
2024/01/26 03:07:04;;;;;;;0.82;0.35;;;;;;;21.44;35.73;101438.47;2081765;28;20080;-61
2024/01/26 03:08:06;;;;;;;0.30;0.30;;;;;;;21.43;35.61;101441.50;2073881;28;20144;-61
2024/01/26 03:09:08;;;;;;;8.90;0.55;;;;;;;21.44;35.79;101440.41;2090559;28;20037;-62
2024/01/26 03:10:10;;;;;;;0.80;0.40;;;;;;;21.44;35.81;101441.19;2106440;28;20040;-62
2024/01/26 03:11:12;;;;;;;1.23;0.40;;;;;;;21.43;35.74;101442.31;2090260;28;20053;-62
2024/01/26 03:12:14;;;;;;;0.35;0.20;;;;;;;21.44;35.99;101443.94;2090185;28;20160;-61
2024/01/26 03:13:17;;;;;;;1.17;0.50;;;;;;;21.43;35.97;101439.56;2106491;28;20032;-61
2024/01/26 03:14:19;;;;;;;0.70;0.40;;;;;;;21.42;35.81;101443.44;2098236;28;20898;-61
2024/01/26 03:15:21;;;;;;;1.42;0.45;;;;;;;21.43;35.82;101444.25;2072945;28;20903;-61
2024/01/26 03:16:23;;;;;;;1.15;0.30;;;;;;;21.42;35.84;101443.44;2073804;28;20030;-61
2024/01/26 03:17:24;;;;;;;0.80;0.43;;;;;;;21.43;35.76;101447.78;2089722;28;20025;-62
2024/01/26 03:18:26;;;;;;;0.93;0.35;;;;;;;21.43;35.68;101447.00;2089428;28;20170;-61
2024/01/26 03:19:35;;;;;;;0.73;0.30;;;;;;;21.43;35.75;101449.72;2090626;28;20795;-61
2024/01/26 03:20:36;;;;;;;0.80;0.30;;;;;;;21.42;35.78;101451.66;2098311;28;20913;-61
2024/01/26 03:21:44;;;;;;;1.00;0.43;;;;;;;21.42;35.90;101454.41;2090246;28;20021;-61
2024/01/26 03:22:46;;;;;;;0.80;0.50;;;;;;;21.43;35.71;101458.72;2090836;28;20056;-62
2024/01/26 03:23:47;;;;;;;0.40;0.30;;;;;;;21.42;35.92;101454.41;2089421;28;20037;-62
2024/01/26 03:24:52;;;;;;;0.32;0.30;;;;;;;21.42;35.85;101459.06;2089606;28;20045;-62
2024/01/26 03:25:54;;;;;;;0.32;0.30;;;;;;;21.42;35.85;101453.59;2092846;28;20037;-62
2024/01/26 03:26:55;;;;;;;0.38;0.30;;;;;;;21.41;35.62;101458.28;2081423;28;20034;-61
2024/01/26 03:27:57;;;;;;;0.40;0.30;;;;;;;21.40;35.81;101459.38;2073791;28;20073;-61
2024/01/26 03:28:59;;;;;;;0.43;0.30;;;;;;;21.40;35.72;101459.38;2098119;28;20114;-61
2024/01/26 03:30:02;;;;;;;0.75;0.20;;;;;;;21.41;35.75;101463.75;2098283;28;20764;-61
2024/01/26 03:31:03;;;;;;;0.90;0.40;;;;;;;21.39;35.73;101454.25;2097924;28;20779;-61
2024/01/26 03:32:04;;;;;;;1.77;0.40;;;;;;;21.39;35.93;101455.06;2089993;28;20073;-61
2024/01/26 03:33:07;;;;;;;0.52;0.30;;;;;;;21.38;35.87;101450.72;2081741;28;20038;-61
2024/01/26 03:34:10;;;;;;;0.65;0.30;;;;;;;21.40;35.71;101453.13;2090406;28;20033;-61
2024/01/26 03:35:11;;;;;;;0.40;0.30;;;;;;;21.39;35.86;101449.59;2098235;28;20034;-61
2024/01/26 03:36:13;;;;;;;1.05;0.40;;;;;;;21.38;35.98;101453.47;2089822;28;20042;-61
2024/01/26 03:37:14;;;;;;;1.52;0.40;;;;;;;21.38;36.00;101452.66;2089734;28;20109;-62
2024/01/26 03:38:16;;;;;;;0.25;0.20;;;;;;;21.38;35.94;101448.00;2098303;28;20827;-61
2024/01/26 03:39:18;;;;;;;0.68;0.32;;;;;;;21.39;35.93;101452.31;2097927;28;20138;-61
2024/01/26 03:40:21;;;;;;;0.43;0.30;;;;;;;21.39;35.97;101459.72;2090280;28;20033;-61
2024/01/26 03:41:23;;;;;;;0.50;0.30;;;;;;;21.38;35.90;101453.47;2089746;28;20183;-62
2024/01/26 03:42:24;;;;;;;0.65;0.30;;;;;;;21.38;36.03;101458.94;2090312;28;20033;-61
2024/01/26 03:43:26;;;;;;;0.22;0.22;;;;;;;21.39;35.91;101465.19;2098175;28;20119;-61
2024/01/26 03:44:27;;;;;;;0.30;0.30;;;;;;;21.38;35.84;101469.88;2089684;28;20045;-62
2024/01/26 03:45:29;;;;;;;0.55;0.38;;;;;;;21.38;35.84;101458.94;2089409;28;20156;-61
2024/01/26 03:46:31;;;;;;;0.63;0.40;;;;;;;21.37;35.88;101464.72;2089978;28;20974;-61
2024/01/26 03:47:33;;;;;;;0.57;0.40;;;;;;;21.37;35.78;101462.78;2098042;28;20111;-61
2024/01/26 03:48:33;;;;;;;0.32;0.30;;;;;;;21.36;35.86;101460.38;2098276;28;20037;-61
2024/01/26 03:49:35;;;;;;;0.73;0.40;;;;;;;21.36;35.85;101461.19;2089725;28;20112;-61
2024/01/26 03:50:37;;;;;;;0.52;0.30;;;;;;;21.37;35.86;101457.31;2081549;28;20049;-62
2024/01/26 03:51:39;;;;;;;1.08;0.40;;;;;;;21.37;35.88;101451.03;2081284;28;20033;-62
2024/01/26 03:52:40;;;;;;;1.20;0.30;;;;;;;21.36;35.95;101455.72;2089942;28;20829;-61
2024/01/26 03:53:42;;;;;;;0.77;0.45;;;;;;;21.32;35.89;101449.28;2089746;28;20045;-61
2024/01/26 03:54:48;;;;;;;0.82;0.45;;;;;;;21.37;35.82;101456.50;2090009;28;20037;-62
2024/01/26 03:55:52;;;;;;;0.50;0.40;;;;;;;21.36;35.67;101461.19;2098377;28;20258;-61
2024/01/26 03:56:56;;;;;;;0.30;0.30;;;;;;;21.36;35.79;101460.38;2098199;28;20040;-61
2024/01/26 03:57:58;;;;;;;1.30;0.50;;;;;;;21.36;35.63;101454.91;2090016;28;20107;-62
2024/01/26 03:58:59;;;;;;;0.95;0.40;;;;;;;21.35;35.90;101456.84;2098166;28;20029;-62
2024/01/26 04:00:04;;;;;;;1.10;0.38;;;;;;;21.35;35.74;101456.03;2097963;28;20155;-62
2024/01/26 04:01:14;;;;;;;0.70;0.38;;;;;;;21.34;35.75;101463.41;2098350;28;20875;-62
2024/01/26 04:02:17;;;;;;;0.60;0.45;;;;;;;21.34;35.87;101446.19;2090818;28;20152;-62
2024/01/26 04:03:20;;;;;;;1.42;0.30;;;;;;;21.34;35.94;101449.72;2090062;28;20041;-62
2024/01/26 04:04:21;;;;;;;0.70;0.50;;;;;;;21.33;35.79;101450.88;2097955;28;20037;-62
2024/01/26 04:05:23;;;;;;;0.65;0.50;;;;;;;21.34;35.80;101447.00;2089576;28;20167;-62
2024/01/26 04:06:25;;;;;;;3.08;0.50;;;;;;;21.34;35.95;101446.19;2089410;28;20030;-61
2024/01/26 04:07:28;;;;;;;1.13;0.50;;;;;;;21.34;35.88;101446.19;2089507;28;20821;-62
2024/01/26 04:08:30;;;;;;;0.75;0.40;;;;;;;21.34;35.72;101449.72;2097816;28;20029;-62
2024/01/26 04:09:31;;;;;;;1.25;0.60;;;;;;;21.34;35.86;101447.00;2089898;28;20064;-62
2024/01/26 04:10:33;;;;;;;0.98;0.60;;;;;;;21.34;35.75;101447.00;2089597;28;20041;-62
2024/01/26 04:11:34;;;;;;;1.50;0.50;;;;;;;21.34;35.76;101447.00;2098728;28;20041;-62
2024/01/26 04:12:36;;;;;;;2.28;0.40;;;;;;;21.34;35.84;101438.78;2098009;28;20029;-62
2024/01/26 04:13:38;;;;;;;0.90;0.50;;;;;;;21.34;35.76;101438.78;2089895;28;20144;-62
2024/01/26 04:14:40;;;;;;;1.63;0.50;;;;;;;21.34;35.86;101441.53;2089752;28;20888;-62
2024/01/26 04:15:44;;;;;;;0.93;0.60;;;;;;;21.33;35.85;101434.47;2103351;28;20117;-61
2024/01/26 04:16:46;;;;;;;0.73;0.40;;;;;;;21.34;35.81;101433.31;2099785;28;20871;-62
2024/01/26 04:17:47;;;;;;;0.50;0.43;;;;;;;21.33;35.64;101444.59;2090637;28;21133;-62
2024/01/26 04:18:49;;;;;;;0.77;0.40;;;;;;;21.34;35.73;101436.06;2099598;28;20033;-62
2024/01/26 04:19:51;;;;;;;0.52;0.40;;;;;;;21.34;35.81;101438.00;2099061;28;20048;-62
2024/01/26 04:20:53;;;;;;;0.73;0.35;;;;;;;21.33;35.80;101434.47;2099604;28;20071;-62
2024/01/26 04:21:54;;;;;;;0.65;0.40;;;;;;;21.33;35.81;101436.41;2099368;28;20064;-62
2024/01/26 04:22:56;;;;;;;0.30;0.30;;;;;;;21.33;35.72;101429.00;2099053;28;20060;-63
2024/01/26 04:23:59;;;;;;;0.95;0.50;;;;;;;21.32;35.83;101434.81;2108354;28;20936;-63
2024/01/26 04:25:01;;;;;;;1.95;0.50;;;;;;;21.32;35.73;101430.13;2107346;28;20087;-62
2024/01/26 04:26:04;;;;;;;1.33;0.30;;;;;;;21.30;35.73;101426.91;2099520;28;20041;-62
2024/01/26 04:27:06;;;;;;;1.15;0.60;;;;;;;21.29;35.61;101428.84;2088060;28;20111;-63
2024/01/26 04:28:08;;;;;;;0.95;0.40;;;;;;;21.27;35.54;101430.31;2082412;28;20042;-62
2024/01/26 04:29:10;;;;;;;1.25;0.50;;;;;;;21.26;35.64;101423.25;2073464;28;20050;-62
2024/01/26 04:30:14;;;;;;;0.47;0.38;;;;;;;21.26;35.81;101428.72;2081927;28;20045;-62
2024/01/26 04:31:16;;;;;;;0.73;0.30;;;;;;;21.24;35.76;101431.75;2082283;28;20156;-62
2024/01/26 04:32:18;;;;;;;0.55;0.40;;;;;;;21.24;35.77;101436.44;2096142;28;20883;-62
2024/01/26 04:33:20;;;;;;;0.52;0.40;;;;;;;21.23;35.81;101434.84;2098313;28;20041;-63
2024/01/26 04:34:21;;;;;;;1.55;0.40;;;;;;;21.20;35.55;101432.75;2090509;28;20037;-63
2024/01/26 04:35:23;;;;;;;0.60;0.40;;;;;;;21.22;35.88;101433.25;2089809;28;20034;-63
2024/01/26 04:36:24;;;;;;;0.80;0.38;;;;;;;21.21;35.75;101426.16;2090116;28;20107;-63
2024/01/26 04:37:26;;;;;;;0.70;0.40;;;;;;;21.21;35.97;101426.94;2081688;28;20056;-63
2024/01/26 04:38:27;;;;;;;0.40;0.30;;;;;;;21.21;35.97;101424.22;2090431;28;20038;-63
2024/01/26 04:39:29;;;;;;;0.52;0.30;;;;;;;21.21;35.73;101426.16;2098314;28;20072;-64
2024/01/26 04:40:30;;;;;;;0.40;0.40;;;;;;;21.21;35.90;101423.41;2098458;28;20095;-63
2024/01/26 04:41:32;;;;;;;1.52;0.40;;;;;;;21.20;35.89;101430.03;2106567;28;20209;-63
2024/01/26 04:42:34;;;;;;;0.30;0.30;;;;;;;21.20;35.97;101419.09;2098313;28;20037;-63
2024/01/26 04:43:36;;;;;;;0.50;0.30;;;;;;;21.17;35.85;101417.81;2073834;28;20034;-63
2024/01/26 04:44:37;;;;;;;0.77;0.40;;;;;;;21.18;35.69;101415.88;2082254;28;20042;-63
2024/01/26 04:45:43;;;;;;;0.55;0.30;;;;;;;21.17;35.75;101420.53;2093900;28;20045;-63
2024/01/26 04:46:44;;;;;;;0.40;0.40;;;;;;;21.17;35.77;101419.75;2075712;28;20042;-63
2024/01/26 04:47:46;;;;;;;1.10;0.40;;;;;;;21.16;35.98;101418.94;2090511;28;20152;-63
2024/01/26 04:48:48;;;;;;;0.60;0.40;;;;;;;21.16;35.90;101418.16;2082559;28;20066;-63
2024/01/26 04:49:49;;;;;;;0.90;0.30;;;;;;;21.17;35.76;101411.53;2082674;28;20045;-62
2024/01/26 04:50:51;;;;;;;0.32;0.30;;;;;;;21.17;35.91;101419.75;2074355;28;20038;-65